createdAt,value
2018-02-03T00:01:41.152Z,5.60
2018-02-03T00:04:08.686Z,5.68
2018-02-03T00:06:36.233Z,5.50
2018-02-03T00:09:03.745Z,6.30
2018-02-03T00:11:32.021Z,5.82
2018-02-03T00:13:59.526Z,5.93
2018-02-03T00:16:27.057Z,5.70
2018-02-03T00:18:54.741Z,5.50
2018-02-03T00:21:22.232Z,5.43
2018-02-03T00:23:49.742Z,5.80
2018-02-03T00:26:17.231Z,5.77
2018-02-03T00:28:44.761Z,5.43
2018-02-03T00:31:12.244Z,5.00
2018-02-03T00:33:39.749Z,5.50
2018-02-03T00:36:08.013Z,5.85
2018-02-03T00:38:35.509Z,5.40
2018-02-03T00:41:03.756Z,5.23
2018-02-03T00:43:31.256Z,5.60
2018-02-03T00:45:58.723Z,5.50
2018-02-03T00:48:26.350Z,5.67
2018-02-03T00:50:53.948Z,5.72
2018-02-03T00:53:21.605Z,5.60
2018-02-03T00:55:49.469Z,5.27
2018-02-03T00:58:17.371Z,5.53
2018-02-03T01:00:44.864Z,5.37
2018-02-03T01:03:12.343Z,5.27
2018-02-03T01:05:39.985Z,5.50
2018-02-03T01:08:07.473Z,5.20
2018-02-03T01:10:35.004Z,5.90
2018-02-03T01:13:03.245Z,5.17
2018-02-03T01:15:30.787Z,5.60
2018-02-03T01:17:58.286Z,6.00
2018-02-03T01:20:25.789Z,5.83
2018-02-03T01:22:53.260Z,5.70
2018-02-03T01:25:20.762Z,5.43
2018-02-03T01:27:48.244Z,5.30
2018-02-03T01:30:15.764Z,5.60
2018-02-03T01:32:43.286Z,6.00
2018-02-03T01:35:10.770Z,5.93
2018-02-03T01:37:38.262Z,5.73
2018-02-03T01:40:05.781Z,5.20
2018-02-03T01:42:33.296Z,5.63
2018-02-03T01:45:00.846Z,5.97
2018-02-03T01:47:40.191Z,6.00
2018-02-03T01:50:07.684Z,5.45
2018-02-03T01:52:35.294Z,6.40
2018-02-03T01:55:02.787Z,5.73
2018-02-03T01:57:30.288Z,5.37
2018-02-03T01:59:58.681Z,6.40
2018-02-03T02:02:26.203Z,6.13
2018-02-03T02:04:53.722Z,5.95
2018-02-03T02:07:21.341Z,6.30
2018-02-03T02:09:48.833Z,6.10
2018-02-03T02:12:16.507Z,6.27
2018-02-03T02:14:44.014Z,6.23
2018-02-03T02:17:11.582Z,6.07
2018-02-03T02:19:39.076Z,5.87
2018-02-03T02:22:06.562Z,6.27
2018-02-03T02:24:34.168Z,6.20
2018-02-03T02:27:01.841Z,6.30
2018-02-03T02:29:29.343Z,6.57
2018-02-03T02:31:56.822Z,5.47
2018-02-03T02:34:24.433Z,5.40
2018-02-03T02:36:51.978Z,5.73
2018-02-03T02:39:19.477Z,5.60
2018-02-03T02:41:46.962Z,5.40
2018-02-03T02:44:15.246Z,6.17
2018-02-03T02:46:43.498Z,6.37
2018-02-03T02:49:10.998Z,7.77
2018-02-03T02:51:39.458Z,8.27
2018-02-03T02:54:06.989Z,8.57
2018-02-03T02:56:34.475Z,9.40
2018-02-03T02:59:01.973Z,9.73
2018-02-03T03:01:29.598Z,9.50
2018-02-03T03:03:57.085Z,8.43
2018-02-03T03:06:24.629Z,8.83
2018-02-03T03:08:52.117Z,8.80
2018-02-03T03:11:19.885Z,8.20
2018-02-03T03:13:47.439Z,7.00
2018-02-03T03:16:15.121Z,7.90
2018-02-03T03:18:42.620Z,8.10
2018-02-03T03:21:10.134Z,8.83
2018-02-03T03:23:37.631Z,8.85
2018-02-03T03:26:05.900Z,8.90
2018-02-03T03:28:34.157Z,8.83
2018-02-03T03:31:01.766Z,9.30
2018-02-03T03:33:29.442Z,9.18
2018-02-03T03:35:56.923Z,9.37
2018-02-03T03:38:24.551Z,9.95
2018-02-03T03:40:52.049Z,10.30
2018-02-03T03:43:19.652Z,10.13
2018-02-03T03:45:47.911Z,9.88
2018-02-03T03:48:16.233Z,10.07
2018-02-03T03:50:43.707Z,9.90
2018-02-03T03:53:11.220Z,9.77
2018-02-03T03:55:38.711Z,9.93
2018-02-03T03:58:06.212Z,9.87
2018-02-03T04:00:33.718Z,10.07
2018-02-03T04:03:01.207Z,10.10
2018-02-03T04:05:28.718Z,9.67
2018-02-03T04:07:56.226Z,9.10
2018-02-03T04:10:23.755Z,9.65
2018-02-03T04:12:51.254Z,10.13
2018-02-03T04:15:18.770Z,9.10
2018-02-03T04:17:46.270Z,10.10
2018-02-03T04:20:14.554Z,10.53
2018-02-03T04:22:42.220Z,9.70
2018-02-03T04:25:10.497Z,10.60
2018-02-03T04:27:38.765Z,10.23
2018-02-03T04:30:06.259Z,10.03
2018-02-03T04:32:33.906Z,10.57
2018-02-03T04:35:01.575Z,10.57
2018-02-03T04:37:29.503Z,10.13
2018-02-03T04:39:57.094Z,10.52
2018-02-03T04:42:24.613Z,10.57
2018-02-03T04:44:52.214Z,10.20
2018-02-03T04:47:20.006Z,10.15
2018-02-03T04:49:47.550Z,10.37
2018-02-03T04:52:15.081Z,11.07
2018-02-03T04:54:42.579Z,10.90
2018-02-03T04:57:10.069Z,11.20
2018-02-03T04:59:37.574Z,10.73
2018-02-03T05:02:05.074Z,11.30
2018-02-03T05:04:32.592Z,11.10
2018-02-03T05:07:00.064Z,11.27
2018-02-03T05:09:27.580Z,11.30
2018-02-03T05:11:55.060Z,11.03
2018-02-03T05:14:22.582Z,10.25
2018-02-03T05:16:50.078Z,10.82
2018-02-03T05:19:17.602Z,11.20
2018-02-03T05:21:45.318Z,11.43
2018-02-03T05:24:12.825Z,11.13
2018-02-03T05:26:40.338Z,11.30
2018-02-03T05:29:07.878Z,11.50
2018-02-03T05:31:35.394Z,11.77
2018-02-03T05:34:03.675Z,11.07
2018-02-03T05:36:31.196Z,10.77
2018-02-03T05:38:58.686Z,12.55
2018-02-03T05:41:26.224Z,12.23
2018-02-03T05:43:53.712Z,12.13
2018-02-03T05:46:21.253Z,12.98
2018-02-03T05:48:48.748Z,12.55
2018-02-03T05:51:16.410Z,12.45
2018-02-03T05:53:43.894Z,12.75
2018-02-03T05:56:11.401Z,11.60
2018-02-03T05:58:39.829Z,12.93
2018-02-03T06:01:07.334Z,12.25
2018-02-03T06:03:34.836Z,12.77
2018-02-03T06:06:02.339Z,12.30
2018-02-03T06:08:29.862Z,12.93
2018-02-03T06:10:57.373Z,13.60
2018-02-03T06:13:25.648Z,13.40
2018-02-03T06:15:53.262Z,13.70
2018-02-03T06:18:20.793Z,13.52
2018-02-03T06:20:48.277Z,13.57
2018-02-03T06:23:15.790Z,13.65
2018-02-03T06:25:44.058Z,13.32
2018-02-03T06:28:12.398Z,13.15
2018-02-03T06:30:39.921Z,13.50
2018-02-03T06:33:07.590Z,13.30
2018-02-03T06:35:35.167Z,12.80
2018-02-03T06:38:02.829Z,12.60
2018-02-03T06:40:30.341Z,11.70
2018-02-03T06:42:58.594Z,12.85
2018-02-03T06:45:26.101Z,12.35
2018-02-03T06:47:53.586Z,12.20
2018-02-03T06:50:21.119Z,12.27
2018-02-03T06:52:48.679Z,12.30
2018-02-03T06:55:16.178Z,12.82
2018-02-03T06:57:43.687Z,12.43
2018-02-03T07:00:11.261Z,11.75
2018-02-03T07:02:39.108Z,12.65
2018-02-03T07:05:06.606Z,11.10
2018-02-03T07:07:34.170Z,12.48
2018-02-03T07:10:01.654Z,12.65
2018-02-03T07:12:29.174Z,11.68
2018-02-03T07:14:56.673Z,12.07
2018-02-03T07:17:24.953Z,11.77
2018-02-03T07:19:52.441Z,12.57
2018-02-03T07:22:19.987Z,12.60
2018-02-03T07:24:47.478Z,12.15
2018-02-03T07:27:15.009Z,12.20
2018-02-03T07:29:42.509Z,12.98
2018-02-03T07:32:10.035Z,12.77
2018-02-03T07:34:38.310Z,12.53
2018-02-03T07:37:06.300Z,12.07
2018-02-03T07:39:33.808Z,13.60
2018-02-03T07:42:02.241Z,13.38
2018-02-03T07:44:29.751Z,13.38
2018-02-03T07:46:57.245Z,12.70
2018-02-03T07:49:24.773Z,12.75
2018-02-03T07:51:52.253Z,13.17
2018-02-03T07:54:19.773Z,14.20
2018-02-03T07:56:47.272Z,13.57
2018-02-03T07:59:14.804Z,13.23
2018-02-03T08:01:43.053Z,12.13
2018-02-03T08:04:10.746Z,11.60
2018-02-03T08:06:39.035Z,11.40
2018-02-03T08:09:07.310Z,11.73
2018-02-03T08:11:34.876Z,12.15
2018-02-03T08:14:02.421Z,11.70
2018-02-03T08:16:30.948Z,12.30
2018-02-03T08:18:58.465Z,12.37
2018-02-03T08:21:25.969Z,11.10
2018-02-03T08:23:53.499Z,12.10
2018-02-03T08:26:21.035Z,12.03
2018-02-03T08:28:48.537Z,12.90
2018-02-03T08:31:16.079Z,12.37
2018-02-03T08:33:43.590Z,12.23
2018-02-03T08:36:11.283Z,13.70
2018-02-03T08:38:38.784Z,14.02
2018-02-03T08:41:06.403Z,14.37
2018-02-03T08:43:33.932Z,13.50
2018-02-03T08:46:02.215Z,14.10
2018-02-03T08:48:30.639Z,13.43
2018-02-03T08:50:58.140Z,14.40
2018-02-03T08:53:26.402Z,12.80
2018-02-03T08:55:54.028Z,17.27
2018-02-03T08:58:21.668Z,13.10
2018-02-03T09:00:50.014Z,12.37
2018-02-03T09:03:17.685Z,12.07
2018-02-03T09:05:45.173Z,12.10
2018-02-03T09:08:13.569Z,11.73
2018-02-03T09:10:41.063Z,12.03
2018-02-03T09:13:08.582Z,12.03
2018-02-03T09:15:36.082Z,12.90
2018-02-03T09:18:03.633Z,12.20
2018-02-03T09:20:31.162Z,12.37
2018-02-03T09:23:00.908Z,11.87
2018-02-03T09:25:32.040Z,11.20
2018-02-03T09:27:59.640Z,11.23
2018-02-03T09:30:27.260Z,11.90
2018-02-03T09:32:54.786Z,11.17
2018-02-03T09:35:23.041Z,11.13
2018-02-03T09:37:51.342Z,10.60
2018-02-03T09:40:18.910Z,10.63
2018-02-03T09:42:46.428Z,10.17
2018-02-03T09:45:14.144Z,10.37
2018-02-03T09:47:41.635Z,9.70
2018-02-03T09:50:09.151Z,10.30
2018-02-03T09:52:36.675Z,10.67
2018-02-03T09:55:04.275Z,9.77
2018-02-03T09:57:31.788Z,11.10
2018-02-03T09:59:59.395Z,9.50
2018-02-03T10:02:26.896Z,8.93
2018-02-03T10:04:54.424Z,8.10
2018-02-03T10:07:21.968Z,7.93
2018-02-03T10:09:49.727Z,7.90
2018-02-03T10:12:17.276Z,8.13
2018-02-03T10:14:45.036Z,7.73
2018-02-03T10:17:12.585Z,8.57
2018-02-03T10:19:40.105Z,8.10
2018-02-03T10:22:07.642Z,8.50
2018-02-03T10:24:35.190Z,8.17
2018-02-03T10:27:02.699Z,8.33
2018-02-03T10:29:30.205Z,9.80
2018-02-03T10:31:57.729Z,8.33
2018-02-03T10:34:25.249Z,8.80
2018-02-03T10:36:52.774Z,8.77
2018-02-03T10:39:21.077Z,8.93
2018-02-03T10:41:48.602Z,8.63
2018-02-03T10:44:17.206Z,9.20
2018-02-03T10:46:44.939Z,8.53
2018-02-03T10:49:12.432Z,9.20
2018-02-03T10:51:39.938Z,8.40
2018-02-03T10:54:07.456Z,8.60
2018-02-03T10:56:34.953Z,9.20
2018-02-03T10:59:02.481Z,8.00
2018-02-03T11:01:29.998Z,7.93
2018-02-03T11:03:58.280Z,8.47
2018-02-03T11:06:25.863Z,7.97
2018-02-03T11:08:53.522Z,8.80
2018-02-03T11:11:21.060Z,8.57
2018-02-03T11:13:48.726Z,17.50
2018-02-03T11:16:16.389Z,10.50
2018-02-03T11:18:43.920Z,12.37
2018-02-03T11:21:11.430Z,9.10
2018-02-03T11:23:38.944Z,9.50
2018-02-03T11:26:07.200Z,9.97
2018-02-03T11:28:34.715Z,8.03
2018-02-03T11:31:02.208Z,8.93
2018-02-03T11:33:31.717Z,8.30
2018-02-03T11:35:59.246Z,8.37
2018-02-03T11:38:26.737Z,7.80
2018-02-03T11:40:54.257Z,7.87
2018-02-03T11:43:21.749Z,7.83
2018-02-03T11:45:49.279Z,8.50
2018-02-03T11:48:16.775Z,7.87
2018-02-03T11:50:44.294Z,7.87
2018-02-03T11:53:11.828Z,8.00
2018-02-03T11:55:39.386Z,8.17
2018-02-03T11:58:06.909Z,8.40
2018-02-03T12:00:34.413Z,7.60
2018-02-03T12:03:01.945Z,6.97
2018-02-03T12:05:30.213Z,7.60
2018-02-03T12:07:57.729Z,7.20
2018-02-03T12:10:25.216Z,7.20
2018-02-03T12:12:52.815Z,7.50
2018-02-03T12:15:20.528Z,7.83
2018-02-03T12:17:48.062Z,8.30
2018-02-03T12:20:15.536Z,7.90
2018-02-03T12:22:43.038Z,7.57
2018-02-03T12:25:10.560Z,7.87
2018-02-03T12:27:38.815Z,7.27
2018-02-03T12:30:06.335Z,8.00
2018-02-03T12:32:33.833Z,7.87
2018-02-03T12:35:01.369Z,8.17
2018-02-03T12:37:30.148Z,7.63
2018-02-03T12:39:57.653Z,7.23
2018-02-03T12:42:25.148Z,6.93
2018-02-03T12:44:53.527Z,7.30
2018-02-03T12:47:21.204Z,13.33
2018-02-03T12:49:48.870Z,7.10
2018-02-03T12:52:16.366Z,7.60
2018-02-03T12:54:43.909Z,7.40
2018-02-03T12:57:11.426Z,7.00
2018-02-03T12:59:39.694Z,6.43
2018-02-03T13:02:07.962Z,7.00
2018-02-03T13:04:35.797Z,6.60
2018-02-03T13:07:04.094Z,6.80
2018-02-03T13:09:33.631Z,6.70
2018-02-03T13:12:01.906Z,6.73
2018-02-03T13:14:29.668Z,7.13
2018-02-03T13:16:57.227Z,5.87
2018-02-03T13:19:25.474Z,6.27
2018-02-03T13:21:52.980Z,7.20
2018-02-03T13:24:20.465Z,5.90
2018-02-03T13:26:47.972Z,7.03
2018-02-03T13:29:15.465Z,7.40
2018-02-03T13:31:43.035Z,7.80
2018-02-03T13:34:10.681Z,7.43
2018-02-03T13:36:38.201Z,7.30
2018-02-03T13:39:06.474Z,7.33
2018-02-03T13:41:33.970Z,7.47
2018-02-03T13:44:01.543Z,7.10
2018-02-03T13:46:29.035Z,7.03
2018-02-03T13:48:58.121Z,7.30
2018-02-03T13:51:25.619Z,8.97
2018-02-03T13:53:53.126Z,9.17
2018-02-03T13:56:20.639Z,7.40
2018-02-03T13:58:48.902Z,7.17
2018-02-03T14:01:16.396Z,7.53
2018-02-03T14:03:43.911Z,7.63
2018-02-03T14:06:11.427Z,8.03
2018-02-03T14:08:38.948Z,8.17
2018-02-03T14:11:06.442Z,7.50
2018-02-03T14:13:34.075Z,6.67
2018-02-03T14:16:01.860Z,8.10
2018-02-03T14:18:29.407Z,7.70
2018-02-03T14:20:56.938Z,7.83
2018-02-03T14:23:24.418Z,6.77
2018-02-03T14:25:57.592Z,8.37
2018-02-03T14:28:26.078Z,9.87
2018-02-03T14:30:54.391Z,7.77
2018-02-03T14:33:22.612Z,7.20
2018-02-03T14:35:50.278Z,7.13
2018-02-03T14:38:18.570Z,7.47
2018-02-03T14:40:47.243Z,6.93
2018-02-03T14:43:14.741Z,6.77
2018-02-03T14:45:42.289Z,8.10
2018-02-03T14:48:09.815Z,13.63
2018-02-03T14:50:37.525Z,6.50
2018-02-03T14:53:05.021Z,6.33
2018-02-03T14:55:33.460Z,6.07
2018-02-03T14:58:00.994Z,6.00
2018-02-03T15:00:28.524Z,6.03
2018-02-03T15:03:01.939Z,6.73
2018-02-03T15:05:29.414Z,6.07
2018-02-03T15:07:57.705Z,6.57
2018-02-03T15:10:25.227Z,6.40
2018-02-03T15:12:52.770Z,6.67
2018-02-03T15:15:20.283Z,6.83
2018-02-03T15:17:47.786Z,6.40
2018-02-03T15:20:15.286Z,7.30
2018-02-03T15:22:42.803Z,6.53
2018-02-03T15:25:10.291Z,6.80
2018-02-03T15:27:38.538Z,6.30
2018-02-03T15:30:06.054Z,7.07
2018-02-03T15:32:33.533Z,6.33
2018-02-03T15:35:01.055Z,6.03
2018-02-03T15:37:28.532Z,7.20
2018-02-03T15:39:56.043Z,6.37
2018-02-03T15:42:23.533Z,6.43
2018-02-03T15:44:51.092Z,6.70
2018-02-03T15:47:18.730Z,7.00
2018-02-03T15:49:46.288Z,6.77
2018-02-03T15:52:13.798Z,7.03
2018-02-03T15:54:41.343Z,7.30
2018-02-03T15:57:08.917Z,7.83
2018-02-03T15:59:36.481Z,8.67
2018-02-03T16:02:03.998Z,7.80
2018-02-03T16:04:31.535Z,8.37
2018-02-03T16:06:59.349Z,8.27
2018-02-03T16:09:26.862Z,7.63
2018-02-03T16:11:54.413Z,7.70
2018-02-03T16:14:21.904Z,8.27
2018-02-03T16:16:49.492Z,7.53
2018-02-03T16:19:16.986Z,8.00
2018-02-03T16:21:44.631Z,7.93
2018-02-03T16:24:12.119Z,8.07
2018-02-03T16:26:39.811Z,7.77
2018-02-03T16:29:07.322Z,7.20
2018-02-03T16:31:34.831Z,7.73
2018-02-03T16:34:02.356Z,8.73
2018-02-03T16:36:30.056Z,8.77
2018-02-03T16:38:57.567Z,9.17
2018-02-03T16:41:25.134Z,8.85
2018-02-03T16:43:52.645Z,8.83
2018-02-03T16:46:20.183Z,8.83
2018-02-03T16:48:47.708Z,9.87
2018-02-03T16:51:15.194Z,9.67
2018-02-03T16:53:42.729Z,8.80
2018-02-03T16:56:10.240Z,9.33
2018-02-03T16:58:37.760Z,9.67
2018-02-03T17:01:05.263Z,9.93
2018-02-03T17:03:32.837Z,10.32
2018-02-03T17:06:00.444Z,10.33
2018-02-03T17:08:27.980Z,9.63
2018-02-03T17:10:55.461Z,9.30
2018-02-03T17:13:22.969Z,8.93
2018-02-03T17:15:50.481Z,8.37
2018-02-03T17:18:17.988Z,8.23
2018-02-03T17:20:45.497Z,8.93
2018-02-03T17:23:12.995Z,8.37
2018-02-03T17:25:40.540Z,9.70
2018-02-03T17:28:08.075Z,9.17
2018-02-03T17:30:35.727Z,9.70
2018-02-03T17:33:03.222Z,10.10
2018-02-03T17:35:30.730Z,10.30
2018-02-03T17:38:04.756Z,11.40
2018-02-03T17:40:32.268Z,11.30
2018-02-03T17:42:59.850Z,12.80
2018-02-03T17:45:32.991Z,13.23
2018-02-03T17:48:00.496Z,12.20
2018-02-03T17:50:28.923Z,12.68
2018-02-03T17:52:56.435Z,12.47
2018-02-03T17:55:30.706Z,12.03
2018-02-03T17:57:58.228Z,11.87
2018-02-03T18:00:26.122Z,12.73
2018-02-03T18:02:53.642Z,11.60
2018-02-03T18:05:21.908Z,11.27
2018-02-03T18:07:49.632Z,12.10
2018-02-03T18:10:17.255Z,9.80
2018-02-03T18:12:44.775Z,9.90
2018-02-03T18:15:12.285Z,9.40
2018-02-03T18:17:39.804Z,11.02
2018-02-03T18:20:07.493Z,13.47
2018-02-03T18:22:38.371Z,11.83
2018-02-03T18:25:05.773Z,10.90
2018-02-03T18:27:33.283Z,12.50
2018-02-03T18:30:00.843Z,12.13
2018-02-03T18:32:28.447Z,12.00
2018-02-03T18:34:56.001Z,10.90
2018-02-03T18:37:23.500Z,10.23
2018-02-03T18:39:51.595Z,10.10
2018-02-03T18:42:19.098Z,9.63
2018-02-03T18:44:47.502Z,8.75
2018-02-03T18:47:15.031Z,9.57
2018-02-03T18:49:42.542Z,9.20
2018-02-03T18:52:10.187Z,9.93
2018-02-03T18:54:37.701Z,9.97
2018-02-03T18:57:05.196Z,9.50
2018-02-03T18:59:32.878Z,8.17
2018-02-03T19:02:00.366Z,6.87
2018-02-03T19:04:27.901Z,6.47
2018-02-03T19:06:55.421Z,6.47
2018-02-03T19:09:23.110Z,7.45
2018-02-03T19:11:50.606Z,6.93
2018-02-03T19:14:18.133Z,5.87
2018-02-03T19:16:45.657Z,5.85
2018-02-03T19:19:13.164Z,5.83
2018-02-03T19:21:40.908Z,6.75
2018-02-03T19:24:08.410Z,6.00
2018-02-03T19:26:35.904Z,6.68
2018-02-03T19:29:03.411Z,6.70
2018-02-03T19:31:30.940Z,7.20
2018-02-03T19:33:58.665Z,6.95
2018-02-03T19:36:27.602Z,6.57
2018-02-03T19:38:55.105Z,6.35
2018-02-03T19:41:23.380Z,6.85
2018-02-03T19:43:51.693Z,7.22
2018-02-03T19:46:19.178Z,6.78
2018-02-03T19:48:46.688Z,6.45
2018-02-03T19:51:14.202Z,5.10
2018-02-03T19:53:41.715Z,4.87
2018-02-03T19:56:09.317Z,4.97
2018-02-03T19:58:37.066Z,5.15
2018-02-03T20:01:04.602Z,5.30
2018-02-03T20:03:32.779Z,5.57
2018-02-03T20:06:00.279Z,5.50
2018-02-03T20:08:27.867Z,5.40
2018-02-03T20:10:56.116Z,4.93
2018-02-03T20:13:23.642Z,5.65
2018-02-03T20:15:51.146Z,5.85
2018-02-03T20:18:18.646Z,5.12
2018-02-03T20:20:46.183Z,5.47
2018-02-03T20:23:13.686Z,5.10
2018-02-03T20:25:41.210Z,5.65
2018-02-03T20:28:08.743Z,5.32
2018-02-03T20:30:37.065Z,5.72
2018-02-03T20:33:04.602Z,5.18
2018-02-03T20:35:33.670Z,5.70
2018-02-03T20:38:01.169Z,6.12
2018-02-03T20:40:28.667Z,5.90
2018-02-03T20:42:56.200Z,6.35
2018-02-03T20:45:23.721Z,6.40
2018-02-03T20:47:52.006Z,6.23
2018-02-03T20:50:19.515Z,6.25
2018-02-03T20:52:47.040Z,5.70
2018-02-03T20:55:14.533Z,6.72
2018-02-03T20:57:42.087Z,6.78
2018-02-03T21:00:09.644Z,7.50
2018-02-03T21:02:37.167Z,6.72
2018-02-03T21:05:04.737Z,7.18
2018-02-03T21:07:32.252Z,6.93
2018-02-03T21:10:00.506Z,6.70
2018-02-03T21:12:28.417Z,7.62
2018-02-03T21:14:55.900Z,7.53
2018-02-03T21:17:23.392Z,7.53
2018-02-03T21:19:50.910Z,8.05
2018-02-03T21:22:18.411Z,7.60
2018-02-03T21:24:45.917Z,8.40
2018-02-03T21:27:13.419Z,8.02
2018-02-03T21:29:40.959Z,8.20
2018-02-03T21:32:08.459Z,8.35
2018-02-03T21:34:35.965Z,8.27
2018-02-03T21:37:03.478Z,9.25
2018-02-03T21:39:31.774Z,8.73
2018-02-03T21:42:00.054Z,8.90
2018-02-03T21:44:27.561Z,9.82
2018-02-03T21:46:55.080Z,8.23
2018-02-03T21:49:22.582Z,8.02
2018-02-03T21:51:50.098Z,8.48
2018-02-03T21:54:17.591Z,9.02
2018-02-03T21:56:45.103Z,8.80
2018-02-03T21:59:13.394Z,9.35
2018-02-03T22:01:40.923Z,8.82
2018-02-03T22:04:08.492Z,8.27
2018-02-03T22:06:35.958Z,8.68
2018-02-03T22:09:03.478Z,9.38
2018-02-03T22:11:31.056Z,8.75
2018-02-03T22:13:59.329Z,8.90
2018-02-03T22:16:27.600Z,9.05
2018-02-03T22:18:56.030Z,10.80
2018-02-03T22:21:23.512Z,11.35
2018-02-03T22:23:51.099Z,10.00
2018-02-03T22:26:18.606Z,9.63
2018-02-03T22:28:46.135Z,9.98
2018-02-03T22:31:13.615Z,9.70
2018-02-03T22:33:41.119Z,9.07
2018-02-03T22:36:08.614Z,9.45
2018-02-03T22:38:36.110Z,10.30
2018-02-03T22:41:03.640Z,9.95
2018-02-03T22:43:31.175Z,9.35
2018-02-03T22:45:59.473Z,8.55
2018-02-03T22:48:26.978Z,10.60
2018-02-03T22:50:54.585Z,10.40
2018-02-03T22:53:22.101Z,10.98
2018-02-03T22:55:49.601Z,10.68
2018-02-03T22:58:17.102Z,9.95
2018-02-03T23:00:50.213Z,9.57
2018-02-03T23:03:17.728Z,8.93
2018-02-03T23:05:45.212Z,9.02
2018-02-03T23:08:12.948Z,8.45
2018-02-03T23:10:40.440Z,8.95
2018-02-03T23:13:08.054Z,8.27
2018-02-03T23:15:35.550Z,8.32
2018-02-03T23:18:03.475Z,8.60
2018-02-03T23:20:30.957Z,8.10
2018-02-03T23:22:58.518Z,7.60
2018-02-03T23:25:26.007Z,7.87
2018-02-03T23:27:53.551Z,7.57
2018-02-03T23:30:21.076Z,7.03
2018-02-03T23:32:48.750Z,6.82
2018-02-03T23:35:16.390Z,7.65
2018-02-03T23:37:44.046Z,7.78
2018-02-03T23:40:11.552Z,7.72
2018-02-03T23:42:39.055Z,8.48
2018-02-03T23:45:06.579Z,7.80
2018-02-03T23:47:34.482Z,8.27
2018-02-03T23:50:02.026Z,9.18
2018-02-03T23:52:29.511Z,9.55
2018-02-03T23:54:57.042Z,10.38
2018-02-03T23:57:25.459Z,9.95
2018-02-03T23:59:52.964Z,9.82
